Portada
METAR-TAF:

METAR-TAF

Aeropuertos :

Langlade County Airport

Antigo, Wisconsin, Estados Unidos

latitud: 45-09-15N, longitud: 89-06-39W, altitud: 464 m

Observación

El informe se hizo hace 5 minutos, a las 01:35 UTC
Viento calma
Temperatura 15°C
Humedad 77%
Presión 1012 hPa
Visibilidad: 16.1 km
Cielo despejado

METAR: KAIG 290135Z AUTO 00000KT 10SM CLR 15/11 A2987 RMK AO2 T01510113

Hora: 20:40 (01:40 UTC)


TAF: falta

Observaciones y pronósticos meteorológicos de más de 4000 aeropuertos (mensajes METAR y TAF).

Los puntos amarillos y rojos representan las estaciones disponibles.

Ponga el ratón en el punto deseado para ver el nombre de la estación.

Haga clic para ver las observaciones y los pronósticos meteorológicos.

Para cambiar el mapa : haga clic en los botones verdes con una cruz de color negro para hacer un zoom, en el botón verde con un guión para alejar o en las flechas verdes para mapas adyacentes.


METAR-TAF: